Time;durP1;ratioP1;P1;durP2;ratioP2;P2;SDS_P1;SDS_P2;PMS_P1;PMS_P2;Temp;Humidity;BMP_temperature;BMP_pressure;BME280_temperature;BME280_humidity;BME280_pressure;Samples;Min_cycle;Max_cycle;Signal;HPM_P1;HPM_P2
2021/05/09 00:00:34;;;;;;;4.50;2.60;;;;;;;;;;5036599;28;20106;-80
2021/05/09 00:02:59;;;;;;;4.38;2.58;;;;;;;;;;5052918;28;20742;-80
2021/05/09 00:05:25;;;;;;;5.13;2.58;;;;;;;;;;5020188;28;20047;-80
2021/05/09 00:07:50;;;;;;;5.40;2.60;;;;;;;;;;5036227;28;20133;-81
2021/05/09 00:10:17;;;;;;;4.43;2.58;;;;;;;;;;5035979;28;20048;-80
2021/05/09 00:12:42;;;;;;;4.72;2.30;;;;;;;;;;5036588;28;20407;-80
2021/05/09 00:15:10;;;;;;;3.00;2.00;;;;;;;;;;5052466;28;20045;-80
2021/05/09 00:17:35;;;;;;;4.20;2.53;;;;;;;;;;5036822;28;20056;-80
2021/05/09 00:20:01;;;;;;;4.25;2.67;;;;;;;;;;5019786;28;20041;-80
2021/05/09 00:22:26;;;;;;;3.40;2.10;;;;;;;;;;5055180;28;20395;-79
2021/05/09 00:24:52;;;;;;;4.70;2.80;;;;;;;;;;5055757;28;20041;-80
2021/05/09 00:27:17;;;;;;;3.65;2.15;;;;;;;;;;5035355;28;20418;-81
2021/05/09 00:29:42;;;;;;;5.78;2.95;;;;;;;;;;5019646;28;20056;-80
2021/05/09 00:32:08;;;;;;;5.07;2.08;;;;;;;;;;5019367;28;20376;-80
2021/05/09 00:34:33;;;;;;;3.88;1.92;;;;;;;;;;5023334;28;20484;-80
2021/05/09 00:37:00;;;;;;;3.53;1.95;;;;;;;;;;5037359;28;20072;-81
2021/05/09 00:39:25;;;;;;;2.67;1.65;;;;;;;;;;5019449;28;20033;-80
2021/05/09 00:42:02;;;;;;;4.88;1.75;;;;;;;;;;5018799;28;20521;-80
2021/05/09 00:44:27;;;;;;;3.65;1.92;;;;;;;;;;5002843;28;20127;-80
2021/05/09 00:46:53;;;;;;;3.30;1.77;;;;;;;;;;5035888;28;20104;-79
2021/05/09 00:49:18;;;;;;;4.57;2.25;;;;;;;;;;5035742;28;20071;-81
2021/05/09 00:51:44;;;;;;;3.28;1.80;;;;;;;;;;5044395;28;20035;-80
2021/05/09 00:54:10;;;;;;;5.63;2.22;;;;;;;;;;5022424;28;20029;-80
2021/05/09 00:56:35;;;;;;;3.10;1.73;;;;;;;;;;5038892;28;20093;-80
2021/05/09 00:59:01;;;;;;;4.97;1.67;;;;;;;;;;5038761;28;20044;-80
2021/05/09 01:01:26;;;;;;;2.97;1.60;;;;;;;;;;5038770;28;20468;-80
2021/05/09 01:03:52;;;;;;;3.75;2.35;;;;;;;;;;5038014;28;20445;-80
2021/05/09 01:06:17;;;;;;;3.13;1.60;;;;;;;;;;5038815;28;20445;-80
2021/05/09 01:08:43;;;;;;;3.67;1.83;;;;;;;;;;5038639;28;20052;-80
2021/05/09 01:11:08;;;;;;;3.03;1.88;;;;;;;;;;5038231;28;20414;-80
2021/05/09 01:13:34;;;;;;;3.92;1.60;;;;;;;;;;5037938;28;20406;-80
2021/05/09 01:16:00;;;;;;;2.90;1.58;;;;;;;;;;5038841;28;20059;-79
2021/05/09 01:18:27;;;;;;;2.35;1.35;;;;;;;;;;5038436;28;20048;-81
2021/05/09 01:20:52;;;;;;;2.47;1.33;;;;;;;;;;5020823;28;20031;-79
2021/05/09 01:23:18;;;;;;;2.20;1.35;;;;;;;;;;5054826;28;20099;-80
2021/05/09 01:25:43;;;;;;;2.70;1.42;;;;;;;;;;5037878;28;20399;-80
2021/05/09 01:28:09;;;;;;;3.15;1.20;;;;;;;;;;5036646;28;20418;-80
2021/05/09 01:30:35;;;;;;;3.55;1.50;;;;;;;;;;5018011;28;20085;-80
2021/05/09 01:33:00;;;;;;;2.67;1.50;;;;;;;;;;5038171;28;20465;-80
2021/05/09 01:35:26;;;;;;;2.47;1.40;;;;;;;;;;5021293;28;20239;-80
2021/05/09 01:37:51;;;;;;;2.00;1.13;;;;;;;;;;5038372;28;20040;-81
2021/05/09 01:40:17;;;;;;;3.22;1.48;;;;;;;;;;5021251;28;20116;-80
2021/05/09 01:42:42;;;;;;;4.10;1.50;;;;;;;;;;5034547;28;20033;-80
2021/05/09 01:45:08;;;;;;;3.55;1.50;;;;;;;;;;5017926;28;20036;-80
2021/05/09 01:47:36;;;;;;;3.25;1.60;;;;;;;;;;5017865;28;20506;-81
2021/05/09 01:50:04;;;;;;;2.53;1.30;;;;;;;;;;5018554;28;20037;-80
2021/05/09 01:52:32;;;;;;;2.80;1.38;;;;;;;;;;5034832;28;20041;-81
2021/05/09 01:54:57;;;;;;;2.47;1.40;;;;;;;;;;5033303;28;20078;-80
2021/05/09 01:57:23;;;;;;;2.28;1.35;;;;;;;;;;5034320;28;20055;-80
2021/05/09 01:59:48;;;;;;;2.30;1.20;;;;;;;;;;5007906;28;20400;-80
2021/05/09 02:02:13;;;;;;;2.65;1.40;;;;;;;;;;5034156;28;20037;-80
2021/05/09 02:04:39;;;;;;;2.70;1.42;;;;;;;;;;5034057;28;20461;-80
2021/05/09 02:07:04;;;;;;;2.72;1.42;;;;;;;;;;5034395;28;20119;-80
2021/05/09 02:09:30;;;;;;;3.08;1.85;;;;;;;;;;5033951;28;20513;-80
2021/05/09 02:11:55;;;;;;;2.38;1.33;;;;;;;;;;5017542;28;20086;-80
2021/05/09 02:14:21;;;;;;;2.28;1.13;;;;;;;;;;5046341;28;20040;-81
2021/05/09 02:16:46;;;;;;;2.25;1.30;;;;;;;;;;5033972;28;20080;-80
2021/05/09 02:19:12;;;;;;;2.17;1.15;;;;;;;;;;5050535;28;20106;-80
2021/05/09 02:21:39;;;;;;;2.88;1.17;;;;;;;;;;5045364;28;20045;-80
2021/05/09 02:24:05;;;;;;;1.63;0.90;;;;;;;;;;5037682;28;20530;-80
2021/05/09 02:26:30;;;;;;;2.38;1.10;;;;;;;;;;5033830;28;20420;-80
2021/05/09 02:28:56;;;;;;;3.47;1.27;;;;;;;;;;5017588;28;20041;-80
2021/05/09 02:31:21;;;;;;;2.13;1.17;;;;;;;;;;5017209;28;20068;-80
2021/05/09 02:33:49;;;;;;;1.90;0.90;;;;;;;;;;5017995;28;20037;-80
2021/05/09 02:36:14;;;;;;;2.00;1.15;;;;;;;;;;5013702;28;20509;-80
2021/05/09 02:38:39;;;;;;;3.58;1.20;;;;;;;;;;5034130;28;20403;-80
2021/05/09 02:41:05;;;;;;;2.45;1.00;;;;;;;;;;5033723;28;20055;-80
2021/05/09 02:43:30;;;;;;;2.42;1.10;;;;;;;;;;5047660;28;20032;-80
2021/05/09 02:45:56;;;;;;;2.28;1.10;;;;;;;;;;5017254;28;20097;-80
2021/05/09 02:48:21;;;;;;;1.98;0.88;;;;;;;;;;5017667;28;20453;-80
2021/05/09 02:50:47;;;;;;;2.58;1.52;;;;;;;;;;5033965;28;20454;-81
2021/05/09 02:53:13;;;;;;;2.33;1.20;;;;;;;;;;5001011;28;20120;-80
2021/05/09 02:55:39;;;;;;;1.75;1.00;;;;;;;;;;5017009;28;20446;-80
2021/05/09 02:58:04;;;;;;;3.00;1.65;;;;;;;;;;5033615;28;20055;-80
2021/05/09 03:00:29;;;;;;;2.10;1.13;;;;;;;;;;5017165;28;20423;-80
2021/05/09 03:02:55;;;;;;;2.13;1.10;;;;;;;;;;5033452;28;20415;-81
2021/05/09 03:05:20;;;;;;;3.17;1.20;;;;;;;;;;5033459;28;20076;-80
2021/05/09 03:07:46;;;;;;;1.85;0.90;;;;;;;;;;5037307;28;20851;-80
2021/05/09 03:10:11;;;;;;;2.65;1.13;;;;;;;;;;5020903;28;20089;-80
2021/05/09 03:12:37;;;;;;;2.45;0.95;;;;;;;;;;5020805;28;20450;-81
2021/05/09 03:15:03;;;;;;;3.20;1.08;;;;;;;;;;5053575;28;20170;-81
2021/05/09 03:17:28;;;;;;;2.42;0.95;;;;;;;;;;5038286;28;20036;-81
2021/05/09 03:19:54;;;;;;;2.03;1.02;;;;;;;;;;5057123;28;20502;-80
2021/05/09 03:22:19;;;;;;;2.58;1.08;;;;;;;;;;5044283;28;20044;-80
2021/05/09 03:24:45;;;;;;;2.20;1.10;;;;;;;;;;5004242;28;20415;-80
2021/05/09 03:27:10;;;;;;;1.88;1.02;;;;;;;;;;5037075;28;20041;-80
2021/05/09 03:29:36;;;;;;;1.77;1.10;;;;;;;;;;5020501;28;20047;-80
2021/05/09 03:32:01;;;;;;;2.42;0.95;;;;;;;;;;5020661;28;20049;-81
2021/05/09 03:34:26;;;;;;;2.47;0.88;;;;;;;;;;5004426;28;20068;-80
2021/05/09 03:36:52;;;;;;;2.47;1.58;;;;;;;;;;5021920;28;20103;-80
2021/05/09 03:39:17;;;;;;;2.20;1.08;;;;;;;;;;5020714;28;20040;-80
2021/05/09 03:41:43;;;;;;;1.52;0.80;;;;;;;;;;5036618;28;20041;-81
2021/05/09 03:44:08;;;;;;;2.92;1.08;;;;;;;;;;5003814;28;20079;-80
2021/05/09 03:46:34;;;;;;;1.55;0.95;;;;;;;;;;5020267;28;20392;-80
2021/05/09 03:48:59;;;;;;;1.85;1.00;;;;;;;;;;5036849;28;20402;-80
2021/05/09 03:51:25;;;;;;;3.58;1.10;;;;;;;;;;5005182;28;20029;-80
2021/05/09 03:53:50;;;;;;;2.47;1.00;;;;;;;;;;5036847;28;20037;-80
2021/05/09 03:56:16;;;;;;;2.08;1.25;;;;;;;;;;5020030;28;20045;-80
2021/05/09 03:58:41;;;;;;;2.50;0.70;;;;;;;;;;5020215;28;20449;-80
2021/05/09 04:01:06;;;;;;;1.92;0.90;;;;;;;;;;5020219;28;20506;-81
2021/05/09 04:03:32;;;;;;;1.92;0.90;;;;;;;;;;5019634;28;20044;-80
2021/05/09 04:05:57;;;;;;;2.60;1.02;;;;;;;;;;5036390;28;20406;-80
2021/05/09 04:08:24;;;;;;;1.83;0.70;;;;;;;;;;5020273;28;20052;-81
2021/05/09 04:10:51;;;;;;;2.33;0.88;;;;;;;;;;5019047;28;20052;-80
2021/05/09 04:13:16;;;;;;;1.77;1.02;;;;;;;;;;5053900;28;20079;-80
2021/05/09 04:15:42;;;;;;;1.13;0.85;;;;;;;;;;5039534;28;20067;-80
2021/05/09 04:18:08;;;;;;;1.58;0.80;;;;;;;;;;5006990;28;20127;-81
2021/05/09 04:20:34;;;;;;;1.75;0.93;;;;;;;;;;5019939;28;20074;-80
2021/05/09 04:23:15;;;;;;;1.02;0.60;;;;;;;;;;5054556;28;20402;-80
2021/05/09 04:25:45;;;;;;;1.47;0.67;;;;;;;;;;5023164;28;20039;-81
2021/05/09 04:28:11;;;;;;;1.73;0.88;;;;;;;;;;5054797;28;20583;-80
2021/05/09 04:30:36;;;;;;;2.15;0.80;;;;;;;;;;5022149;28;20498;-80
2021/05/09 04:33:05;;;;;;;1.40;0.60;;;;;;;;;;5022731;28;20044;-80
2021/05/09 04:35:31;;;;;;;2.25;0.65;;;;;;;;;;5051051;28;20141;-80
2021/05/09 04:37:57;;;;;;;2.15;0.90;;;;;;;;;;5019300;28;20135;-80
2021/05/09 04:40:22;;;;;;;1.80;0.70;;;;;;;;;;5019313;28;20036;-80
2021/05/09 04:42:48;;;;;;;2.42;0.90;;;;;;;;;;5052045;28;20388;-80
2021/05/09 04:45:13;;;;;;;2.88;0.95;;;;;;;;;;5031783;28;20060;-80
2021/05/09 04:47:39;;;;;;;2.08;1.05;;;;;;;;;;5035589;28;20041;-80
2021/05/09 04:50:05;;;;;;;1.88;0.80;;;;;;;;;;5035974;28;20033;-80
2021/05/09 04:52:30;;;;;;;1.50;0.70;;;;;;;;;;5019292;28;20565;-81
2021/05/09 04:54:56;;;;;;;1.50;0.75;;;;;;;;;;5002911;28;20621;-81
2021/05/09 04:57:21;;;;;;;2.03;0.90;;;;;;;;;;5052299;28;20049;-80
2021/05/09 04:59:47;;;;;;;3.10;1.00;;;;;;;;;;5026428;28;20059;-80
2021/05/09 05:02:12;;;;;;;1.63;0.55;;;;;;;;;;5035332;28;20041;-80
2021/05/09 05:04:37;;;;;;;2.08;0.80;;;;;;;;;;5033934;28;20396;-80
2021/05/09 05:07:03;;;;;;;1.95;1.20;;;;;;;;;;5035626;28;20403;-80
2021/05/09 05:09:28;;;;;;;1.17;0.70;;;;;;;;;;5035091;28;20403;-80
2021/05/09 05:11:55;;;;;;;1.30;0.70;;;;;;;;;;5034719;28;20095;-80
2021/05/09 05:14:20;;;;;;;2.17;0.60;;;;;;;;;;5051422;28;20029;-80
2021/05/09 05:16:46;;;;;;;1.42;0.80;;;;;;;;;;5036064;28;20044;-80
2021/05/09 05:19:11;;;;;;;1.60;0.88;;;;;;;;;;5038358;28;20414;-80
2021/05/09 05:21:36;;;;;;;1.30;0.95;;;;;;;;;;5051629;28;20411;-80
2021/05/09 05:24:02;;;;;;;2.53;1.13;;;;;;;;;;5034848;28;20060;-81
2021/05/09 05:26:28;;;;;;;1.70;0.80;;;;;;;;;;5032943;28;20415;-80
2021/05/09 05:28:53;;;;;;;1.05;0.80;;;;;;;;;;5037917;28;20040;-80
2021/05/09 05:31:19;;;;;;;1.85;0.80;;;;;;;;;;5038174;28;20116;-81
2021/05/09 05:33:44;;;;;;;1.27;0.70;;;;;;;;;;5054763;28;20453;-80
2021/05/09 05:36:10;;;;;;;2.15;0.80;;;;;;;;;;5021846;28;20071;-82
2021/05/09 05:38:36;;;;;;;1.15;0.70;;;;;;;;;;5021556;28;20115;-81
2021/05/09 05:41:01;;;;;;;1.10;0.63;;;;;;;;;;5037806;28;20044;-81
2021/05/09 05:43:28;;;;;;;1.35;0.75;;;;;;;;;;5021366;28;20047;-81
2021/05/09 05:45:54;;;;;;;1.70;0.75;;;;;;;;;;5016684;28;20047;-81
2021/05/09 05:48:20;;;;;;;1.95;0.82;;;;;;;;;;5018454;28;20044;-81
2021/05/09 05:50:45;;;;;;;1.67;0.80;;;;;;;;;;5034610;28;20033;-82
2021/05/09 05:53:10;;;;;;;1.02;0.55;;;;;;;;;;5018198;28;20123;-81
2021/05/09 05:55:36;;;;;;;1.65;0.80;;;;;;;;;;5017568;28;20410;-80
2021/05/09 05:58:02;;;;;;;1.77;0.70;;;;;;;;;;5018143;28;20029;-81
2021/05/09 06:00:27;;;;;;;0.98;0.50;;;;;;;;;;5030477;28;20057;-80
2021/05/09 06:02:52;;;;;;;2.05;0.73;;;;;;;;;;5034465;28;20044;-80
2021/05/09 06:05:18;;;;;;;1.52;0.70;;;;;;;;;;5034020;28;20051;-81
2021/05/09 06:07:43;;;;;;;1.10;0.60;;;;;;;;;;5034235;28;20045;-83
2021/05/09 06:10:10;;;;;;;1.50;0.88;;;;;;;;;;5017182;28;20040;-82
2021/05/09 06:12:35;;;;;;;1.67;1.27;;;;;;;;;;5017680;28;20395;-82
2021/05/09 06:15:01;;;;;;;1.55;0.73;;;;;;;;;;5002376;28;20040;-83
2021/05/09 06:17:26;;;;;;;2.97;1.00;;;;;;;;;;5014331;28;20410;-82
2021/05/09 06:19:52;;;;;;;1.70;1.00;;;;;;;;;;5034801;28;20417;-81
2021/05/09 06:22:17;;;;;;;1.85;0.80;;;;;;;;;;5018598;28;20033;-81
2021/05/09 06:24:42;;;;;;;3.80;0.80;;;;;;;;;;5036175;28;20037;-81
2021/05/09 06:27:08;;;;;;;4.07;0.90;;;;;;;;;;5037021;28;20060;-82
2021/05/09 06:29:33;;;;;;;2.85;1.15;;;;;;;;;;5037066;28;20032;-81
2021/05/09 06:31:59;;;;;;;2.17;1.00;;;;;;;;;;5037544;28;20399;-81
2021/05/09 06:34:24;;;;;;;2.92;0.60;;;;;;;;;;5036957;28;20399;-82
2021/05/09 06:36:51;;;;;;;1.55;0.57;;;;;;;;;;5021120;28;20072;-81
2021/05/09 06:39:24;;;;;;;3.90;0.88;;;;;;;;;;5017810;28;20054;-82
2021/05/09 06:41:50;;;;;;;5.50;1.15;;;;;;;;;;5019672;28;20033;-82
2021/05/09 06:44:15;;;;;;;4.82;0.90;;;;;;;;;;5020547;28;20021;-83
2021/05/09 06:46:42;;;;;;;4.13;0.77;;;;;;;;;;5037047;28;20445;-84
2021/05/09 06:49:07;;;;;;;3.58;0.90;;;;;;;;;;5035507;28;20525;-83
2021/05/09 06:51:33;;;;;;;4.65;1.67;;;;;;;;;;5034790;28;20048;-82
2021/05/09 06:53:59;;;;;;;3.30;1.30;;;;;;;;;;5035873;28;20036;-83
2021/05/09 06:56:26;;;;;;;5.65;1.38;;;;;;;;;;5019367;28;20032;-83
2021/05/09 06:58:51;;;;;;;5.47;1.30;;;;;;;;;;5033864;28;20548;-82
2021/05/09 07:01:18;;;;;;;3.78;1.23;;;;;;;;;;5015073;28;20080;-83
2021/05/09 07:03:43;;;;;;;5.70;1.30;;;;;;;;;;5000648;28;20051;-85
2021/05/09 07:06:09;;;;;;;12.25;1.95;;;;;;;;;;5018213;28;20442;-83
2021/05/09 07:08:35;;;;;;;12.10;1.70;;;;;;;;;;5017305;28;20499;-84
2021/05/09 07:11:02;;;;;;;6.43;1.45;;;;;;;;;;5034938;28;20055;-84
2021/05/09 07:13:27;;;;;;;9.98;2.28;;;;;;;;;;5000392;28;20033;-84
2021/05/09 07:15:55;;;;;;;3.50;1.50;;;;;;;;;;5017346;28;20087;-84
2021/05/09 07:18:23;;;;;;;3.17;1.35;;;;;;;;;;5031664;28;20406;-83
2021/05/09 07:20:56;;;;;;;5.40;1.10;;;;;;;;;;5025751;28;20037;-83
2021/05/09 07:23:22;;;;;;;1.50;0.80;;;;;;;;;;5035410;28;20036;-82
2021/05/09 07:25:47;;;;;;;4.25;1.10;;;;;;;;;;5033169;28;20077;-82
2021/05/09 07:28:14;;;;;;;2.35;1.05;;;;;;;;;;5017547;28;20051;-82
2021/05/09 07:30:40;;;;;;;1.73;0.90;;;;;;;;;;5008599;28;20036;-82
2021/05/09 07:33:05;;;;;;;2.92;1.10;;;;;;;;;;5050831;28;20060;-83
2021/05/09 07:35:35;;;;;;;3.78;1.15;;;;;;;;;;5012091;28;20036;-81
2021/05/09 07:38:06;;;;;;;3.13;1.23;;;;;;;;;;5034152;28;20041;-83
2021/05/09 07:40:32;;;;;;;3.45;1.20;;;;;;;;;;5034155;28;20043;-82
2021/05/09 07:42:57;;;;;;;5.13;1.40;;;;;;;;;;5024823;28;20115;-82
2021/05/09 07:45:23;;;;;;;2.33;1.20;;;;;;;;;;5015839;28;20087;-81
2021/05/09 07:47:49;;;;;;;2.35;1.20;;;;;;;;;;5043170;28;20115;-81
2021/05/09 07:50:15;;;;;;;2.08;1.00;;;;;;;;;;5031835;28;20120;-82
2021/05/09 07:52:43;;;;;;;2.80;1.33;;;;;;;;;;5014228;28;20032;-81
2021/05/09 07:55:08;;;;;;;5.95;1.33;;;;;;;;;;5021797;28;20028;-81
2021/05/09 07:57:34;;;;;;;3.72;1.38;;;;;;;;;;5026750;28;20044;-81
2021/05/09 07:59:59;;;;;;;3.05;0.93;;;;;;;;;;5018971;28;20455;-82
2021/05/09 08:02:25;;;;;;;2.03;1.02;;;;;;;;;;5027934;28;20450;-82
2021/05/09 08:04:50;;;;;;;3.50;1.00;;;;;;;;;;5046881;28;20079;-82
2021/05/09 08:07:15;;;;;;;2.15;1.00;;;;;;;;;;5028116;28;20048;-82
2021/05/09 08:09:41;;;;;;;3.80;1.20;;;;;;;;;;5052818;28;20423;-82
2021/05/09 08:12:07;;;;;;;3.67;1.20;;;;;;;;;;5021554;28;20051;-82
2021/05/09 08:14:32;;;;;;;3.92;1.23;;;;;;;;;;5039426;28;20056;-82
2021/05/09 08:16:58;;;;;;;2.97;1.33;;;;;;;;;;5038696;28;20182;-82
2021/05/09 08:19:23;;;;;;;1.90;1.20;;;;;;;;;;5022897;28;20539;-82
2021/05/09 08:21:50;;;;;;;2.63;1.10;;;;;;;;;;5036358;28;20051;-82
2021/05/09 08:24:16;;;;;;;2.53;1.00;;;;;;;;;;5069119;28;20041;-81
2021/05/09 08:26:41;;;;;;;5.03;2.00;;;;;;;;;;5038625;28;20125;-82
2021/05/09 08:29:07;;;;;;;5.05;2.97;;;;;;;;;;5039307;28;20062;-81
2021/05/09 08:31:33;;;;;;;4.43;2.20;;;;;;;;;;5039220;28;20036;-81
2021/05/09 08:33:58;;;;;;;3.03;1.63;;;;;;;;;;5055482;28;20036;-82
2021/05/09 08:36:24;;;;;;;3.38;1.80;;;;;;;;;;5022915;28;20059;-82
2021/05/09 08:38:49;;;;;;;3.08;1.40;;;;;;;;;;5038935;28;20111;-82
2021/05/09 08:41:15;;;;;;;1.55;1.00;;;;;;;;;;5039094;28;20062;-82
2021/05/09 08:43:42;;;;;;;3.08;1.25;;;;;;;;;;5022367;28;20037;-83
2021/05/09 08:46:07;;;;;;;3.90;1.38;;;;;;;;;;5022974;28;20507;-82
2021/05/09 08:48:33;;;;;;;2.72;1.10;;;;;;;;;;5039089;28;20041;-83
2021/05/09 08:50:58;;;;;;;2.63;1.40;;;;;;;;;;5022951;28;20024;-83
2021/05/09 08:53:25;;;;;;;2.42;1.15;;;;;;;;;;5055110;28;20032;-83
2021/05/09 08:55:50;;;;;;;3.58;1.13;;;;;;;;;;5055553;28;20031;-82
2021/05/09 08:58:15;;;;;;;3.75;1.60;;;;;;;;;;5038920;28;20415;-82
2021/05/09 09:00:41;;;;;;;6.20;2.45;;;;;;;;;;5039160;28;20461;-80
2021/05/09 09:03:06;;;;;;;2.85;1.20;;;;;;;;;;5032561;28;20136;-81
2021/05/09 09:05:36;;;;;;;5.03;1.48;;;;;;;;;;5031294;28;20055;-81
2021/05/09 09:08:01;;;;;;;4.20;1.20;;;;;;;;;;5071986;28;20040;-82
2021/05/09 09:10:39;;;;;;;6.15;1.30;;;;;;;;;;5055350;28;20522;-81
2021/05/09 09:13:27;;;;;;;8.68;4.25;;;;;;;;;;5038905;28;20419;-81
2021/05/09 09:15:57;;;;;;;12.18;7.10;;;;;;;;;;5072257;28;20037;-82
2021/05/09 09:18:43;;;;;;;8.65;5.30;;;;;;;;;;5034992;28;20049;-82
2021/05/09 09:21:27;;;;;;;7.45;4.88;;;;;;;;;;5037846;28;20060;-82
2021/05/09 09:24:00;;;;;;;6.60;3.50;;;;;;;;;;5021813;28;20512;-82
2021/05/09 09:26:36;;;;;;;2.97;1.92;;;;;;;;;;5055333;28;20036;-82
2021/05/09 09:29:19;;;;;;;2.72;1.85;;;;;;;;;;5055073;28;20040;-83
2021/05/09 09:31:45;;;;;;;3.40;1.48;;;;;;;;;;5031393;28;20032;-82
2021/05/09 09:34:11;;;;;;;5.28;1.45;;;;;;;;;;5001927;28;20490;-82
2021/05/09 09:36:37;;;;;;;4.15;1.58;;;;;;;;;;5048848;28;20075;-83
2021/05/09 09:39:04;;;;;;;4.93;1.45;;;;;;;;;;5034562;28;20064;-83
2021/05/09 09:41:31;;;;;;;3.08;1.67;;;;;;;;;;5015150;28;20078;-82
2021/05/09 09:44:09;;;;;;;3.78;1.40;;;;;;;;;;5021242;28;20108;-82
2021/05/09 09:46:52;;;;;;;2.08;1.70;;;;;;;;;;5038972;28;20032;-81
2021/05/09 09:49:19;;;;;;;5.63;1.55;;;;;;;;;;5024145;28;20028;-82
2021/05/09 09:51:52;;;;;;;8.00;1.77;;;;;;;;;;5037742;28;20036;-82
2021/05/09 09:54:41;;;;;;;2.72;1.20;;;;;;;;;;5021686;28;20068;-80
2021/05/09 09:57:28;;;;;;;3.55;1.40;;;;;;;;;;5023075;28;20465;-80
2021/05/09 10:00:13;;;;;;;2.70;1.30;;;;;;;;;;5048628;28;20101;-80
2021/05/09 10:02:39;;;;;;;2.60;1.63;;;;;;;;;;5034531;28;20403;-80
2021/05/09 10:05:05;;;;;;;9.77;6.45;;;;;;;;;;5051840;28;20048;-80
2021/05/09 10:07:30;;;;;;;12.02;7.43;;;;;;;;;;5017459;28;20116;-81
2021/05/09 10:09:56;;;;;;;5.38;3.38;;;;;;;;;;5017857;28;20041;-81
2021/05/09 10:12:23;;;;;;;6.20;2.22;;;;;;;;;;5039703;28;20059;-82
2021/05/09 10:14:48;;;;;;;3.03;1.80;;;;;;;;;;5023350;28;20522;-80
2021/05/09 10:17:14;;;;;;;3.38;1.30;;;;;;;;;;5042543;28;20115;-81
2021/05/09 10:19:39;;;;;;;2.78;1.50;;;;;;;;;;5017784;28;20044;-80
2021/05/09 10:22:27;;;;;;;4.65;1.58;;;;;;;;;;5039235;28;20040;-80
2021/05/09 10:24:52;;;;;;;2.70;1.20;;;;;;;;;;5020480;28;20576;-80
2021/05/09 10:27:18;;;;;;;2.70;1.45;;;;;;;;;;5018621;28;20112;-80
2021/05/09 10:29:45;;;;;;;2.95;1.42;;;;;;;;;;5036159;28;20526;-80
2021/05/09 10:32:19;;;;;;;4.65;2.30;;;;;;;;;;5061620;28;20037;-79
2021/05/09 10:34:51;;;;;;;3.13;1.80;;;;;;;;;;5061511;28;20561;-79
2021/05/09 10:37:35;;;;;;;1.88;1.17;;;;;;;;;;5061712;28;20515;-80
2021/05/09 10:40:18;;;;;;;6.38;3.15;;;;;;;;;;5033235;28;20047;-80
2021/05/09 10:42:44;;;;;;;4.93;2.38;;;;;;;;;;5039472;28;20044;-80
2021/05/09 10:45:09;;;;;;;4.82;2.30;;;;;;;;;;5032970;28;20041;-80
2021/05/09 10:47:35;;;;;;;3.78;2.20;;;;;;;;;;5033101;28;20478;-80
2021/05/09 10:50:18;;;;;;;5.35;2.75;;;;;;;;;;5017092;28;20037;-80
2021/05/09 10:52:45;;;;;;;4.72;2.35;;;;;;;;;;5050120;28;20414;-80
2021/05/09 10:55:35;;;;;;;11.55;3.13;;;;;;;;;;5016936;28;20431;-80
2021/05/09 10:58:00;;;;;;;3.50;1.83;;;;;;;;;;5064925;28;20040;-80
2021/05/09 11:00:26;;;;;;;3.75;1.73;;;;;;;;;;5049658;28;20029;-80
2021/05/09 11:02:51;;;;;;;4.85;1.67;;;;;;;;;;5016987;28;20124;-79
2021/05/09 11:05:16;;;;;;;4.20;2.13;;;;;;;;;;5048531;28;20061;-80
2021/05/09 11:07:43;;;;;;;5.22;2.28;;;;;;;;;;5048277;28;20471;-80
2021/05/09 11:10:39;;;;;;;3.17;1.75;;;;;;;;;;5049920;28;20111;-80
2021/05/09 11:13:07;;;;;;;5.50;3.45;;;;;;;;;;5037011;28;20052;-80
2021/05/09 11:15:32;;;;;;;5.63;3.20;;;;;;;;;;5000791;28;20097;-80
2021/05/09 11:17:58;;;;;;;5.80;3.28;;;;;;;;;;5041496;28;20104;-80
2021/05/09 11:20:24;;;;;;;4.50;2.35;;;;;;;;;;5030964;28;20449;-80
2021/05/09 11:22:56;;;;;;;4.53;2.17;;;;;;;;;;5030440;28;20376;-80
2021/05/09 11:25:31;;;;;;;2.42;1.45;;;;;;;;;;5009941;28;20041;-80
2021/05/09 11:27:57;;;;;;;;;;;;;;;;;;5051225;28;20043;-80
2021/05/09 11:30:34;;;;;;;6.13;2.03;;;;;;;;;;5036141;28;20043;-80
2021/05/09 11:32:59;;;;;;;3.78;1.42;;;;;;;;;;5028663;28;20045;-81
2021/05/09 11:35:35;;;;;;;4.95;2.95;;;;;;;;;;5023279;28;20615;-80
2021/05/09 11:38:01;;;;;;;5.72;2.17;;;;;;;;;;5019069;28;20041;-80
2021/05/09 11:40:26;;;;;;;7.55;5.22;;;;;;;;;;5036626;28;20944;-80
2021/05/09 11:42:51;;;;;;;11.23;7.72;;;;;;;;;;5020079;28;20037;-78
2021/05/09 11:45:27;;;;;;;18.05;12.82;;;;;;;;;;5056201;28;20044;-82
2021/05/09 11:47:53;;;;;;;36.80;27.60;;;;;;;;;;5041353;28;20029;-81
2021/05/09 11:50:18;;;;;;;37.92;33.78;;;;;;;;;;5020262;28;20086;-84
2021/05/09 11:52:44;;;;;;;48.88;40.78;;;;;;;;;;5040069;28;20036;-84
2021/05/09 11:55:10;;;;;;;46.20;39.33;;;;;;;;;;5040103;28;20103;-81
2021/05/09 11:57:36;;;;;;;38.90;32.70;;;;;;;;;;5068354;28;20067;-80
2021/05/09 12:00:08;;;;;;;30.85;27.05;;;;;;;;;;5023510;28;20036;-79
2021/05/09 12:02:35;;;;;;;34.75;25.85;;;;;;;;;;5073059;28;20555;-80
2021/05/09 12:05:10;;;;;;;33.45;25.42;;;;;;;;;;5040527;28;20044;-80
2021/05/09 12:07:45;;;;;;;29.30;24.02;;;;;;;;;;5053981;28;20040;-80
2021/05/09 12:10:15;;;;;;;24.80;19.83;;;;;;;;;;5032099;28;20043;-80
2021/05/09 12:12:41;;;;;;;23.73;19.33;;;;;;;;;;5039417;28;20037;-80
2021/05/09 12:15:17;;;;;;;22.52;17.38;;;;;;;;;;5039520;28;20039;-80
2021/05/09 12:17:49;;;;;;;19.17;15.27;;;;;;;;;;5019896;28;20040;-80
2021/05/09 12:20:36;;;;;;;17.30;14.57;;;;;;;;;;5036611;28;20456;-80
2021/05/09 12:23:21;;;;;;;19.38;14.10;;;;;;;;;;5053100;28;20036;-80
2021/05/09 12:25:48;;;;;;;14.65;12.10;;;;;;;;;;5053592;28;20068;-80
2021/05/09 12:28:18;;;;;;;16.75;11.80;;;;;;;;;;5036211;28;20037;-80
2021/05/09 12:30:45;;;;;;;14.73;10.40;;;;;;;;;;5036991;28;20037;-80
2021/05/09 12:33:11;;;;;;;14.98;9.98;;;;;;;;;;5019740;28;20499;-81
2021/05/09 12:35:46;;;;;;;11.02;9.20;;;;;;;;;;5052700;28;20044;-80
2021/05/09 12:38:19;;;;;;;11.43;9.45;;;;;;;;;;5035728;28;20037;-80
2021/05/09 12:40:44;;;;;;;11.50;8.48;;;;;;;;;;5020082;28;20037;-80
2021/05/09 12:43:10;;;;;;;10.27;7.57;;;;;;;;;;5035874;28;20035;-80
2021/05/09 12:45:36;;;;;;;8.68;7.75;;;;;;;;;;5019502;28;20033;-80
2021/05/09 12:48:02;;;;;;;11.23;7.93;;;;;;;;;;5051842;28;20041;-80
2021/05/09 12:50:48;;;;;;;9.40;6.90;;;;;;;;;;5052424;28;20040;-80
2021/05/09 12:53:34;;;;;;;9.45;5.40;;;;;;;;;;5056449;28;20033;-80
2021/05/09 12:56:32;;;;;;;6.88;5.88;;;;;;;;;;5024304;28;20522;-80
2021/05/09 12:59:04;;;;;;;8.30;5.90;;;;;;;;;;5012277;28;20075;-80
2021/05/09 13:01:31;;;;;;;9.23;5.05;;;;;;;;;;5071825;28;20470;-81
2021/05/09 13:03:57;;;;;;;7.75;5.68;;;;;;;;;;5038835;28;20048;-80
2021/05/09 13:06:22;;;;;;;5.65;4.40;;;;;;;;;;5038633;28;20045;-80
2021/05/09 13:08:48;;;;;;;6.65;4.40;;;;;;;;;;5038269;28;20052;-81
2021/05/09 13:11:13;;;;;;;6.45;4.50;;;;;;;;;;5055524;28;20032;-80
2021/05/09 13:13:39;;;;;;;6.20;4.20;;;;;;;;;;5021627;28;20202;-81
2021/05/09 13:16:04;;;;;;;6.28;4.07;;;;;;;;;;5038718;28;20119;-81
2021/05/09 13:18:30;;;;;;;5.65;3.72;;;;;;;;;;5035543;28;20037;-80
2021/05/09 13:20:55;;;;;;;7.07;3.83;;;;;;;;;;5052809;28;20028;-80
2021/05/09 13:23:21;;;;;;;5.85;3.72;;;;;;;;;;5021819;28;20086;-80
2021/05/09 13:25:48;;;;;;;4.68;3.22;;;;;;;;;;5054847;28;20051;-80
2021/05/09 13:28:14;;;;;;;4.22;3.53;;;;;;;;;;5038933;28;20048;-80
2021/05/09 13:30:39;;;;;;;5.28;3.45;;;;;;;;;;5021978;28;20036;-80
2021/05/09 13:33:05;;;;;;;4.03;3.00;;;;;;;;;;5038041;28;20048;-81
2021/05/09 13:35:30;;;;;;;4.15;3.15;;;;;;;;;;5038517;28;20032;-80
2021/05/09 13:37:56;;;;;;;4.43;3.00;;;;;;;;;;5054786;28;20048;-80
2021/05/09 13:40:22;;;;;;;4.10;2.30;;;;;;;;;;5054583;28;20028;-80
2021/05/09 13:42:47;;;;;;;4.47;2.70;;;;;;;;;;5052005;28;20494;-81
2021/05/09 13:45:13;;;;;;;3.10;2.30;;;;;;;;;;5001580;28;20395;-80
2021/05/09 13:47:38;;;;;;;4.07;2.78;;;;;;;;;;5018580;28;20032;-80
2021/05/09 13:50:04;;;;;;;4.25;2.63;;;;;;;;;;5001995;28;20028;-80
2021/05/09 13:52:30;;;;;;;3.17;1.90;;;;;;;;;;5017637;28;20065;-80
2021/05/09 13:54:56;;;;;;;2.92;1.95;;;;;;;;;;5018230;28;20061;-80
2021/05/09 13:57:21;;;;;;;3.20;1.80;;;;;;;;;;5017649;28;20036;-81
2021/05/09 13:59:46;;;;;;;3.75;1.60;;;;;;;;;;5017748;28;20060;-81
2021/05/09 14:02:12;;;;;;;3.83;1.52;;;;;;;;;;5034131;28;20049;-80
2021/05/09 14:04:37;;;;;;;2.92;1.33;;;;;;;;;;5001226;28;20080;-81
2021/05/09 14:07:02;;;;;;;4.80;1.63;;;;;;;;;;5001098;28;20701;-80
2021/05/09 14:09:28;;;;;;;1.98;1.40;;;;;;;;;;5050915;28;20033;-81
2021/05/09 14:12:02;;;;;;;4.03;1.30;;;;;;;;;;5017505;28;20045;-80
2021/05/09 14:14:27;;;;;;;2.28;1.30;;;;;;;;;;5019833;28;20029;-80
2021/05/09 14:16:53;;;;;;;2.67;1.40;;;;;;;;;;5005873;28;20075;-80
2021/05/09 14:19:18;;;;;;;4.10;1.75;;;;;;;;;;5037764;28;20029;-80
2021/05/09 14:21:44;;;;;;;3.97;1.50;;;;;;;;;;5050246;28;20122;-80
2021/05/09 14:24:09;;;;;;;4.00;1.63;;;;;;;;;;5067370;28;20106;-80
2021/05/09 14:26:35;;;;;;;2.30;1.40;;;;;;;;;;5017482;28;20036;-81
2021/05/09 14:29:00;;;;;;;3.05;1.48;;;;;;;;;;5067138;28;20041;-80
2021/05/09 14:31:25;;;;;;;3.15;1.80;;;;;;;;;;5017455;28;20037;-81
2021/05/09 14:33:51;;;;;;;2.28;1.38;;;;;;;;;;5067157;28;20037;-80
2021/05/09 14:36:19;;;;;;;2.22;1.25;;;;;;;;;;5049477;28;20475;-80
2021/05/09 14:38:44;;;;;;;3.50;1.45;;;;;;;;;;5037441;28;20037;-80
2021/05/09 14:41:09;;;;;;;3.53;1.30;;;;;;;;;;5034087;28;20044;-80